Fairbanks, AK

1:25 PM AKST on December 26, 2014 (GMT -0900)
AKDOT 14th Avenue @ Eielson Street | Change Station
CLOSE
Current Station
Personal Weather Station
Location: Fairbanks, AK
Elevation: 482 ft
Nearby Weather Stations
Active Advisory: Winter Weather Advisory Active Notice: Record Report

Elev 482 ft 64.84 °N, 147.71 °W | Updated 34 minutes ago

Haze
Haze
19 °F
Feels Like 19 °F
N
1
Wind Variable Wind from West
Gusts 3.0 mph

Today
High -- | Low -- °F
--% Chance of Precip.
Yesterday
High -- | Low -- °F
Precip. -- in
10:58 AM 2:44 PM
Waxing Crescent, 29% visible
Pressure 29.95 in
Visibility 6.0 miles
Clouds Scattered Clouds 2500 ft
Mostly Cloudy 5000 ft
Overcast 6000 ft
Windchill 19 °F
Dew Point 17 °F
Humidity 92%
Rainfall -999.00 in
Snow Depth Not available.
UV 0 out of 12
Pollen Not available.
Air Quality Not available.
Flu Activity Not available.
METAR PAFB 262156Z AUTO 06006KT 6SM HZ SCT025 BKN050 OVC060 M07/M09 A2992 RMK SNB00E52 SLP142 P0000 T10671094 VIA AUTODIAL

More Conditions Fewer Conditions

Pressure 29.95 in
Visibility 6.0 miles
Clouds Scattered Clouds 2500 ft
Mostly Cloudy 5000 ft
Overcast 6000 ft
Windchill 19 °F
Dew Point 17 °F
Humidity 92%
Rainfall -999.00 in
Snow Depth Not available.
UV 0 out of 12
Pollen Not available.
Air Quality Not available.
Flu Activity Not available.
METAR PAFB 262156Z AUTO 06006KT 6SM HZ SCT025 BKN050 OVC060 M07/M09 A2992 RMK SNB00E52 SLP142 P0000 T10671094 VIA AUTODIAL

More Conditions Fewer Conditions

10-Day Weather Forecast

Almanac

Astronomy

Dec. 26, 2014 Rise Set
Actual Time
Civil Twilight
Nautical Twilight
Astronomical Twilight
Moon
Length of Visible Light
Length of Day
Tomorrow will be .
, % of the Moon is Illuminated

Today's Extremes

State Highs State Lows

Community

WunderPhotos

Upload Photos

1,780,737 photos uploaded!

WunderBlogs® & News

Nearby

Air Quality

  Air Quality AQ Index Pollutant
Not available.

Snow Depth

Station Depth Elevation

Earthquake Activity

City Distance Mag. Time & Date
Minimum magnitude displayed is 2.5.

Coastal Water Temperatures

Place Temperature

Nearby Weather Stations